Colman, South Dakota
Current Conditions -  °F | °C
As of 9:15 AM on Friday 31 Oct 2014 (Local Time) from KMDS Reporting Station
Clear Clear  
Wind Chill: 15°   Ceiling: Unl
Heat Index: 21°   Visibility: 10mi
Dew Point: 21°   Wind: 5mph
Humidity: 100%   Direction: 350°N
Pressure: 30.56"   Gusts: NA
Location:  43.98°N, 96.81°W
Report Text: KMDS 311415Z AUTO 35004KT 10SM CLR M06/M06 A3056 RMK AO2
Loading
Personal Weather Stations






























Interactive Weather Map New forecast layout! Learn more

10-Day Weather Forecast

Advertisements
Track Severe Weather on mobile